Time;durP1;ratioP1;P1;durP2;ratioP2;P2;SDS_P1;SDS_P2;PMS_P1;PMS_P2;Temp;Humidity;BMP_temperature;BMP_pressure;BME280_temperature;BME280_humidity;BME280_pressure;Samples;Min_cycle;Max_cycle;Signal;HPM_P1;HPM_P2
2021/06/03 00:02:08;;;;;;;3.83;2.60;;;17.20;98.80;;;;;;5072625;28;20054;-86
2021/06/03 00:04:34;;;;;;;3.08;2.20;;;17.30;98.50;;;;;;5073839;28;20021;-86
2021/06/03 00:07:00;;;;;;;3.97;2.58;;;17.20;98.10;;;;;;5073834;28;20050;-86
2021/06/03 00:09:26;;;;;;;3.45;2.20;;;17.20;98.20;;;;;;5072457;28;20051;-86
2021/06/03 00:11:52;;;;;;;6.50;2.83;;;17.30;98.70;;;;;;5072434;28;20024;-86
2021/06/03 00:14:19;;;;;;;5.28;2.45;;;17.30;99.00;;;;;;5072455;28;20434;-86
2021/06/03 00:16:45;;;;;;;5.35;2.50;;;17.30;98.50;;;;;;5072371;28;20024;-86
2021/06/03 00:19:11;;;;;;;3.95;2.50;;;17.40;98.90;;;;;;5073657;28;20090;-86
2021/06/03 00:21:39;;;;;;;4.97;2.80;;;17.40;98.30;;;;;;5072405;28;20062;-86
2021/06/03 00:24:06;;;;;;;4.03;2.40;;;17.20;99.40;;;;;;5072292;28;20036;-86
2021/06/03 00:26:33;;;;;;;3.83;2.08;;;17.10;99.80;;;;;;5072254;28;20515;-86
2021/06/03 00:28:59;;;;;;;3.97;2.53;;;17.00;99.90;;;;;;5072279;28;20126;-86
2021/06/03 00:31:25;;;;;;;5.07;2.38;;;17.00;99.70;;;;;;5072178;28;20064;-86
2021/06/03 00:33:51;;;;;;;8.15;2.53;;;17.20;99.40;;;;;;5073365;28;20369;-86
2021/06/03 00:36:16;;;;;;;3.60;2.45;;;17.20;99.90;;;;;;5072228;28;20032;-86
2021/06/03 00:38:42;;;;;;;6.50;2.63;;;17.00;99.90;;;;;;5072279;28;20024;-86
2021/06/03 00:41:09;;;;;;;5.28;2.40;;;16.80;99.90;;;;;;5072102;28;20419;-86
2021/06/03 00:43:35;;;;;;;7.20;2.30;;;16.80;99.90;;;;;;5073367;28;20021;-86
2021/06/03 00:46:01;;;;;;;4.68;2.53;;;16.90;99.90;;;;;;5072037;28;20024;-86
2021/06/03 00:48:28;;;;;;;5.53;2.67;;;17.00;99.90;;;;;;5072023;28;20480;-86
2021/06/03 00:50:56;;;;;;;3.88;2.50;;;16.70;99.90;;;;;;5073192;28;20488;-86
2021/06/03 00:53:22;;;;;;;5.28;2.53;;;16.60;99.90;;;;;;5071578;28;20115;-86
2021/06/03 00:55:54;;;;;;;3.70;2.30;;;16.70;99.90;;;;;;5071976;28;20433;-86
2021/06/03 00:58:21;;;;;;;6.05;2.63;;;16.70;99.90;;;;;;5071958;28;20020;-86
2021/06/03 01:00:48;;;;;;;5.22;2.60;;;16.80;99.90;;;;;;5073168;28;20031;-86
2021/06/03 01:03:14;;;;;;;5.07;2.60;;;16.90;99.90;;;;;;5071953;28;20107;-87
2021/06/03 01:05:45;;;;;;;3.28;2.10;;;16.90;99.90;;;;;;5072134;28;20488;-86
2021/06/03 01:08:19;;;;;;;4.35;2.60;;;16.90;99.90;;;;;;5071898;28;20480;-86
2021/06/03 01:10:59;;;;;;;3.55;2.47;;;17.00;99.90;;;;;;5073032;28;20024;-86
2021/06/03 01:13:47;;;;;;;3.22;2.70;;;17.10;99.90;;;;;;5073136;28;20542;-86
2021/06/03 01:16:14;;;;;;;6.88;2.53;;;17.00;99.90;;;;;;5073053;28;20051;-86
2021/06/03 01:18:42;;;;;;;4.93;2.92;;;17.00;99.90;;;;;;5073018;28;20021;-86
2021/06/03 01:21:15;;;;;;;5.53;2.70;;;17.10;99.90;;;;;;5071703;28;20024;-86
2021/06/03 01:23:53;;;;;;;3.45;2.45;;;17.10;99.90;;;;;;5073564;28;20047;-86
2021/06/03 01:26:19;;;;;;;4.25;2.55;;;17.00;99.90;;;;;;5071686;28;20495;-86
2021/06/03 01:28:46;;;;;;;7.00;2.60;;;17.00;99.90;;;;;;5072878;28;20058;-86
2021/06/03 01:31:13;;;;;;;4.25;2.47;;;16.80;99.90;;;;;;5072807;28;20020;-86
2021/06/03 01:33:41;;;;;;;7.50;2.70;;;16.70;99.90;;;;;;5072643;28;20040;-86
2021/06/03 01:36:13;;;;;;;10.85;2.85;;;16.60;99.90;;;;;;5071514;28;20111;-86
2021/06/03 01:38:40;;;;;;;3.97;2.80;;;16.50;99.90;;;;;;5072852;28;20108;-86
2021/06/03 01:41:09;;;;;;;4.50;3.25;;;16.40;99.90;;;;;;5071471;28;20466;-86
2021/06/03 01:43:38;;;;;;;4.78;2.90;;;16.30;99.90;;;;;;5071486;28;20056;-87
2021/06/03 01:46:04;;;;;;;5.57;2.83;;;16.30;99.90;;;;;;5072707;28;20027;-86
2021/06/03 01:48:30;;;;;;;5.55;2.90;;;16.30;99.90;;;;;;5072703;28;20036;-86
2021/06/03 01:50:58;;;;;;;3.10;2.47;;;16.30;99.90;;;;;;5071317;28;20484;-87
2021/06/03 01:53:27;;;;;;;9.57;2.80;;;16.30;99.90;;;;;;5071407;28;20025;-86
2021/06/03 01:55:54;;;;;;;4.50;2.75;;;16.30;99.90;;;;;;5072657;28;20107;-86
2021/06/03 01:58:21;;;;;;;3.67;2.80;;;16.50;99.90;;;;;;5071403;28;20021;-86
2021/06/03 02:00:48;;;;;;;4.20;2.88;;;16.40;99.90;;;;;;5071475;28;20479;-86
2021/06/03 02:03:14;;;;;;;4.75;2.60;;;16.40;99.90;;;;;;5071419;28;20020;-86
2021/06/03 02:05:39;;;;;;;3.88;2.53;;;16.30;99.90;;;;;;5071797;28;20051;-86
2021/06/03 02:08:05;;;;;;;7.40;3.28;;;16.30;99.90;;;;;;5076117;28;20029;-86
2021/06/03 02:10:31;;;;;;;4.20;2.70;;;16.30;99.90;;;;;;5074709;28;20024;-86
2021/06/03 02:13:24;;;;;;;3.30;2.42;;;16.20;99.90;;;;;;5074699;28;20031;-86
2021/06/03 02:15:55;;;;;;;5.07;2.38;;;16.30;99.90;;;;;;5074669;28;20016;-86
2021/06/03 02:18:22;;;;;;;3.92;2.53;;;16.30;99.90;;;;;;5074688;28;20056;-86
2021/06/03 02:20:51;;;;;;;4.88;2.60;;;16.40;99.90;;;;;;5075873;28;20391;-86
2021/06/03 02:23:17;;;;;;;4.30;2.50;;;16.40;99.90;;;;;;5075818;28;20036;-86
2021/06/03 02:25:44;;;;;;;3.83;2.42;;;16.40;99.90;;;;;;5074532;28;20024;-86
2021/06/03 02:28:10;;;;;;;4.90;2.70;;;16.30;99.90;;;;;;5074413;28;20074;-86
2021/06/03 02:30:37;;;;;;;4.82;2.88;;;16.30;99.90;;;;;;5074458;28;20120;-86
2021/06/03 02:33:04;;;;;;;4.07;3.20;;;16.30;99.90;;;;;;5074181;28;20021;-85
2021/06/03 02:35:30;;;;;;;5.68;2.78;;;16.20;99.90;;;;;;5075906;28;20044;-86
2021/06/03 02:37:56;;;;;;;5.38;2.50;;;16.50;99.90;;;;;;5074280;28;20557;-86
2021/06/03 02:40:27;;;;;;;5.28;3.00;;;16.40;99.90;;;;;;5074275;28;20053;-86
2021/06/03 02:42:53;;;;;;;6.35;3.05;;;16.30;99.90;;;;;;5074271;28;20541;-86
2021/06/03 02:45:29;;;;;;;3.63;2.70;;;16.20;99.90;;;;;;5075444;28;20021;-86
2021/06/03 02:47:56;;;;;;;5.47;2.75;;;16.20;99.90;;;;;;5074088;28;20118;-86
2021/06/03 02:50:24;;;;;;;4.70;2.90;;;16.30;99.90;;;;;;5073950;28;20029;-86
2021/06/03 02:52:52;;;;;;;6.35;2.72;;;16.30;99.90;;;;;;5073995;28;20021;-86
2021/06/03 02:55:20;;;;;;;3.22;2.38;;;16.50;99.90;;;;;;5074082;28;20017;-86
2021/06/03 02:57:46;;;;;;;7.22;2.92;;;16.70;99.90;;;;;;5073886;28;20365;-86
2021/06/03 03:00:25;;;;;;;5.28;2.83;;;16.60;99.90;;;;;;5073879;28;20028;-86
2021/06/03 03:02:51;;;;;;;4.00;2.55;;;16.40;99.90;;;;;;5075177;28;20384;-87
2021/06/03 03:05:17;;;;;;;5.00;2.90;;;16.30;99.90;;;;;;5075257;28;20025;-86
2021/06/03 03:07:43;;;;;;;5.90;2.58;;;16.30;99.90;;;;;;5074952;28;20032;-87
2021/06/03 03:10:16;;;;;;;3.05;2.55;;;16.20;99.90;;;;;;5074852;28;20086;-86
2021/06/03 03:12:41;;;;;;;4.80;2.72;;;16.20;99.90;;;;;;5074932;28;20434;-86
2021/06/03 03:15:08;;;;;;;5.68;2.80;;;16.20;99.90;;;;;;5074828;28;20016;-86
2021/06/03 03:17:35;;;;;;;3.20;2.90;;;16.20;99.90;;;;;;5073195;28;20055;-86
2021/06/03 03:20:01;;;;;;;3.10;2.38;;;16.20;99.90;;;;;;5074700;28;20048;-86
2021/06/03 03:22:26;;;;;;;7.00;2.83;;;16.30;99.90;;;;;;5073412;28;20051;-86
2021/06/03 03:24:52;;;;;;;3.00;2.42;;;16.30;99.90;;;;;;5073347;28;20017;-86
2021/06/03 03:27:18;;;;;;;6.03;2.90;;;16.20;99.90;;;;;;5073323;28;20028;-86
2021/06/03 03:29:44;;;;;;;3.38;2.67;;;16.10;99.90;;;;;;5073496;28;20071;-86
2021/06/03 03:32:10;;;;;;;6.70;2.72;;;16.00;99.90;;;;;;5073149;28;20383;-86
2021/06/03 03:34:36;;;;;;;5.45;2.92;;;16.10;99.90;;;;;;5072944;28;20048;-86
2021/06/03 03:37:02;;;;;;;5.43;2.63;;;16.10;99.90;;;;;;5073065;28;20016;-86
2021/06/03 03:39:28;;;;;;;5.03;2.95;;;16.20;99.90;;;;;;5073079;28;20373;-86
2021/06/03 03:41:54;;;;;;;5.40;2.83;;;16.10;99.90;;;;;;5072992;28;20119;-86
2021/06/03 03:44:20;;;;;;;3.85;2.40;;;16.30;99.90;;;;;;5072977;28;20033;-86
2021/06/03 03:46:45;;;;;;;5.05;2.90;;;16.30;99.90;;;;;;5074159;28;20137;-86
2021/06/03 03:49:11;;;;;;;3.97;2.60;;;16.10;99.90;;;;;;5072869;28;20047;-86
2021/06/03 03:51:37;;;;;;;3.67;2.53;;;16.20;99.90;;;;;;5074057;28;20164;-86
2021/06/03 03:54:03;;;;;;;7.75;3.00;;;16.30;99.90;;;;;;5072791;28;20016;-86
2021/06/03 03:56:29;;;;;;;6.63;3.30;;;16.30;99.90;;;;;;5072814;28;20035;-86
2021/06/03 03:58:54;;;;;;;3.65;3.05;;;16.30;99.90;;;;;;5072696;28;20533;-86
2021/06/03 04:01:22;;;;;;;4.00;2.30;;;16.20;99.90;;;;;;5072681;28;20064;-87
2021/06/03 04:03:49;;;;;;;6.93;3.00;;;16.30;99.90;;;;;;5072597;28;20048;-86
2021/06/03 04:06:15;;;;;;;4.53;2.67;;;16.40;99.90;;;;;;5072567;28;20079;-87
2021/06/03 04:08:41;;;;;;;5.47;2.83;;;16.30;99.90;;;;;;5073796;28;20028;-86
2021/06/03 04:11:06;;;;;;;4.80;2.75;;;16.30;99.90;;;;;;5072360;28;20475;-86
2021/06/03 04:13:32;;;;;;;3.90;2.60;;;16.50;99.90;;;;;;5072478;28;20073;-86
2021/06/03 04:15:58;;;;;;;3.42;2.83;;;16.70;99.90;;;;;;5072653;28;20559;-86
2021/06/03 04:18:24;;;;;;;4.18;3.10;;;16.60;99.90;;;;;;5072595;28;20484;-86
2021/06/03 04:20:50;;;;;;;5.00;3.05;;;16.70;99.90;;;;;;5072383;28;20024;-86
2021/06/03 04:23:15;;;;;;;4.50;2.80;;;16.70;99.90;;;;;;5073688;28;20036;-86
2021/06/03 04:25:41;;;;;;;3.38;2.50;;;16.60;99.90;;;;;;5072419;28;20051;-86
2021/06/03 04:28:07;;;;;;;3.42;2.90;;;16.70;99.90;;;;;;5071854;28;20024;-87
2021/06/03 04:30:34;;;;;;;3.40;2.95;;;16.70;99.90;;;;;;5073180;28;20024;-86
2021/06/03 04:33:00;;;;;;;4.10;2.90;;;16.60;99.90;;;;;;5073490;28;20039;-86
2021/06/03 04:35:27;;;;;;;4.13;2.75;;;16.60;99.90;;;;;;5072231;28;20496;-87
2021/06/03 04:37:53;;;;;;;4.25;2.63;;;16.70;99.90;;;;;;5072130;28;20537;-87
2021/06/03 04:40:22;;;;;;;3.17;2.58;;;16.70;99.90;;;;;;5073412;28;20036;-86
2021/06/03 04:42:48;;;;;;;4.43;2.60;;;16.70;99.90;;;;;;5073249;28;20028;-86
2021/06/03 04:45:16;;;;;;;5.65;2.85;;;16.80;99.90;;;;;;5072093;28;20032;-86
2021/06/03 04:47:43;;;;;;;6.07;3.00;;;16.80;99.90;;;;;;5073243;28;20024;-86
2021/06/03 04:50:10;;;;;;;6.53;3.17;;;16.80;99.90;;;;;;5073495;28;20411;-86
2021/06/03 04:52:36;;;;;;;6.18;3.15;;;16.80;99.90;;;;;;5071971;28;20086;-86
2021/06/03 04:55:07;;;;;;;4.60;3.25;;;16.90;99.90;;;;;;5073232;28;20016;-86
2021/06/03 04:57:35;;;;;;;6.13;3.33;;;16.90;99.90;;;;;;5073236;28;20024;-87
2021/06/03 05:00:01;;;;;;;3.55;2.70;;;16.90;99.90;;;;;;5071900;28;20113;-87
2021/06/03 05:02:26;;;;;;;7.20;3.33;;;16.90;99.90;;;;;;5071916;28;20535;-87
2021/06/03 05:04:53;;;;;;;7.18;3.28;;;16.80;99.90;;;;;;5071890;28;20024;-87
2021/06/03 05:07:19;;;;;;;4.60;2.97;;;16.70;99.90;;;;;;5071860;28;20028;-86
2021/06/03 05:09:47;;;;;;;6.03;3.05;;;16.80;99.90;;;;;;5073156;28;20025;-86
2021/06/03 05:12:13;;;;;;;3.67;2.95;;;17.00;99.90;;;;;;5073010;28;20107;-87
2021/06/03 05:14:39;;;;;;;6.25;2.95;;;17.00;99.90;;;;;;5072095;28;20109;-87
2021/06/03 05:17:04;;;;;;;5.90;3.10;;;17.00;99.90;;;;;;5073249;28;20388;-87
2021/06/03 05:19:30;;;;;;;5.35;3.10;;;17.00;99.90;;;;;;5071697;28;20020;-87
2021/06/03 05:21:56;;;;;;;6.53;3.20;;;17.10;99.90;;;;;;5072864;28;20472;-87
2021/06/03 05:24:22;;;;;;;5.85;3.45;;;17.10;99.90;;;;;;5073165;28;20033;-87
2021/06/03 05:26:47;;;;;;;5.90;2.72;;;17.10;99.90;;;;;;5073522;28;20518;-87
2021/06/03 05:29:14;;;;;;;4.20;3.20;;;17.20;99.90;;;;;;5071691;28;20078;-87
2021/06/03 05:31:44;;;;;;;4.90;3.00;;;17.30;99.90;;;;;;5072932;28;20025;-85
2021/06/03 05:34:12;;;;;;;3.90;3.22;;;17.40;99.90;;;;;;5073036;28;20036;-85
2021/06/03 05:36:37;;;;;;;6.80;3.00;;;17.50;99.90;;;;;;5072964;28;20552;-85
2021/06/03 05:39:05;;;;;;;4.40;2.97;;;17.50;99.90;;;;;;5073071;28;20048;-85
2021/06/03 05:41:32;;;;;;;7.68;3.08;;;17.50;99.90;;;;;;5075174;28;20487;-86
2021/06/03 05:43:58;;;;;;;4.07;3.13;;;17.50;99.90;;;;;;5075741;28;20048;-85
2021/06/03 05:46:24;;;;;;;4.97;3.00;;;17.60;99.90;;;;;;5076862;28;20531;-86
2021/06/03 05:48:50;;;;;;;4.15;3.00;;;17.60;99.90;;;;;;5075292;28;20062;-85
2021/06/03 05:51:16;;;;;;;7.38;3.42;;;17.80;99.90;;;;;;5075150;28;20028;-86
2021/06/03 05:53:42;;;;;;;4.18;3.10;;;17.90;99.90;;;;;;5076559;28;20025;-85
2021/06/03 05:56:08;;;;;;;4.63;3.25;;;17.90;99.90;;;;;;5075172;28;20021;-85
2021/06/03 05:58:34;;;;;;;4.50;2.83;;;17.90;99.90;;;;;;5077030;28;20109;-85
2021/06/03 06:00:59;;;;;;;5.15;3.20;;;18.00;99.90;;;;;;5078110;28;20032;-85
2021/06/03 06:03:42;;;;;;;4.97;2.63;;;18.10;99.90;;;;;;5075191;28;20025;-87
2021/06/03 06:06:12;;;;;;;8.48;2.83;;;18.10;99.90;;;;;;5075822;28;20426;-87
2021/06/03 06:08:39;;;;;;;3.75;2.70;;;18.10;99.90;;;;;;5075807;28;20025;-88
2021/06/03 06:11:04;;;;;;;4.10;3.20;;;18.20;99.90;;;;;;5074723;28;20471;-88
2021/06/03 06:13:30;;;;;;;7.93;3.15;;;18.30;99.90;;;;;;5074738;28;20099;-87
2021/06/03 06:15:56;;;;;;;7.13;2.95;;;18.40;99.90;;;;;;5076250;28;20027;-88
2021/06/03 06:18:22;;;;;;;10.00;3.20;;;18.50;99.90;;;;;;5074724;28;20052;-87
2021/06/03 06:20:47;;;;;;;4.95;3.05;;;18.50;99.90;;;;;;5074717;28;20051;-87
2021/06/03 06:23:16;;;;;;;8.23;3.00;;;18.60;99.90;;;;;;5074724;28;20021;-88
2021/06/03 06:25:43;;;;;;;6.20;3.05;;;18.60;99.90;;;;;;5074627;28;20404;-88
2021/06/03 06:28:11;;;;;;;3.58;2.55;;;18.70;99.90;;;;;;5074587;28;20052;-88
2021/06/03 06:30:36;;;;;;;4.28;2.78;;;18.80;99.90;;;;;;5074426;28;20029;-88
2021/06/03 06:33:03;;;;;;;4.03;2.63;;;18.80;99.90;;;;;;5075550;28;20024;-88
2021/06/03 06:35:29;;;;;;;4.78;2.60;;;18.90;99.90;;;;;;5075739;28;20387;-88
2021/06/03 06:37:54;;;;;;;6.70;2.70;;;19.00;99.90;;;;;;5076011;28;20016;-88
2021/06/03 06:40:21;;;;;;;4.47;2.70;;;19.20;99.90;;;;;;5075589;28;20036;-88
2021/06/03 06:42:53;;;;;;;5.20;2.22;;;19.10;99.90;;;;;;5075814;28;20077;-87
2021/06/03 06:45:19;;;;;;;3.63;2.30;;;19.20;99.90;;;;;;5074239;28;20484;-88
2021/06/03 06:47:45;;;;;;;4.32;2.20;;;19.30;99.90;;;;;;5074066;28;20111;-88
2021/06/03 06:50:11;;;;;;;6.40;2.25;;;19.40;99.90;;;;;;5075546;28;20025;-88
2021/06/03 06:52:37;;;;;;;6.88;2.10;;;19.50;99.90;;;;;;5074572;28;20025;-88
2021/06/03 06:55:05;;;;;;;6.88;2.30;;;19.40;99.90;;;;;;5073985;28;20027;-89
2021/06/03 06:57:31;;;;;;;6.65;2.33;;;19.40;99.90;;;;;;5075272;28;20100;-88
2021/06/03 06:59:57;;;;;;;5.05;2.30;;;19.50;99.90;;;;;;5075191;28;20055;-87
2021/06/03 07:02:22;;;;;;;5.15;2.10;;;19.60;99.90;;;;;;5075435;28;20092;-87
2021/06/03 07:04:48;;;;;;;6.15;1.95;;;19.80;99.90;;;;;;5073772;28;20079;-87
2021/06/03 07:07:14;;;;;;;5.05;2.15;;;19.80;99.90;;;;;;5073748;28;20024;-88
2021/06/03 07:09:39;;;;;;;4.15;1.95;;;19.90;99.90;;;;;;5074960;28;20013;-88
2021/06/03 07:12:05;;;;;;;4.43;2.08;;;20.10;99.90;;;;;;5073523;28;20431;-88
2021/06/03 07:14:31;;;;;;;5.45;2.10;;;20.30;99.90;;;;;;5074795;28;20070;-87
2021/06/03 07:16:57;;;;;;;6.10;2.22;;;20.50;99.90;;;;;;5074861;28;20017;-87
2021/06/03 07:19:22;;;;;;;5.88;1.98;;;20.50;99.90;;;;;;5074793;28;20021;-87
2021/06/03 07:21:48;;;;;;;3.65;1.88;;;20.60;99.90;;;;;;5073479;28;20523;-87
2021/06/03 07:24:14;;;;;;;2.60;1.73;;;20.80;99.90;;;;;;5074935;28;20495;-87
2021/06/03 07:26:39;;;;;;;6.90;2.13;;;21.00;99.90;;;;;;5073420;28;20021;-88
2021/06/03 07:29:06;;;;;;;4.38;1.98;;;20.80;99.90;;;;;;5073309;28;20059;-88
2021/06/03 07:31:35;;;;;;;4.47;2.10;;;20.90;99.90;;;;;;5074735;28;20418;-86
2021/06/03 07:34:05;;;;;;;7.45;1.55;;;20.90;99.90;;;;;;5074260;28;20032;-87
2021/06/03 07:36:34;;;;;;;4.55;1.67;;;20.90;99.90;;;;;;5074449;28;20040;-87
2021/06/03 07:39:01;;;;;;;4.30;2.40;;;20.80;99.90;;;;;;5073145;28;20040;-89
2021/06/03 07:41:27;;;;;;;4.85;2.05;;;20.90;99.90;;;;;;5074505;28;20024;-87
2021/06/03 07:43:53;;;;;;;4.68;1.77;;;20.90;99.90;;;;;;5072981;28;20086;-88
2021/06/03 07:46:19;;;;;;;3.42;1.88;;;21.10;99.90;;;;;;5072956;28;20024;-89
2021/06/03 07:48:45;;;;;;;3.13;2.00;;;21.20;99.90;;;;;;5074268;28;20029;-88
2021/06/03 07:51:11;;;;;;;3.20;2.00;;;21.10;99.90;;;;;;5074166;28;20510;-87
2021/06/03 07:53:38;;;;;;;3.03;1.88;;;21.10;99.90;;;;;;5074123;28;20021;-87
2021/06/03 07:56:04;;;;;;;5.60;2.28;;;21.20;99.90;;;;;;5072815;28;20024;-88
2021/06/03 07:58:30;;;;;;;5.95;2.03;;;21.10;99.90;;;;;;5074321;28;20013;-87
2021/06/03 08:00:56;;;;;;;3.60;1.90;;;21.10;99.90;;;;;;5072706;28;20115;-88
2021/06/03 08:03:21;;;;;;;3.38;2.10;;;21.40;99.90;;;;;;5073622;28;20055;-88
2021/06/03 08:05:47;;;;;;;8.52;2.22;;;21.50;99.90;;;;;;5072623;28;20154;-89
2021/06/03 08:08:13;;;;;;;6.03;1.92;;;21.50;99.90;;;;;;5072573;28;20036;-87
2021/06/03 08:10:42;;;;;;;7.60;1.85;;;21.60;99.90;;;;;;5072454;28;20028;-86
2021/06/03 08:13:10;;;;;;;6.88;1.90;;;21.70;99.90;;;;;;5072443;28;20392;-88
2021/06/03 08:15:38;;;;;;;4.22;1.90;;;21.60;99.90;;;;;;5072492;28;20023;-87
2021/06/03 08:18:05;;;;;;;5.65;2.33;;;21.60;99.90;;;;;;5072466;28;20017;-87
2021/06/03 08:20:36;;;;;;;3.80;1.73;;;21.70;99.90;;;;;;5073629;28;20025;-87
2021/06/03 08:23:04;;;;;;;2.88;1.85;;;21.60;99.90;;;;;;5073730;28;20050;-90
2021/06/03 08:25:31;;;;;;;2.85;1.60;;;21.60;99.90;;;;;;5072937;28;20028;-89
2021/06/03 08:27:56;;;;;;;2.17;1.60;;;21.70;99.90;;;;;;5072889;28;20032;-89
2021/06/03 08:30:22;;;;;;;2.85;1.73;;;21.70;99.90;;;;;;5073502;28;20035;-87
2021/06/03 08:32:50;;;;;;;3.58;1.67;;;21.70;99.90;;;;;;5072097;28;20029;-86
2021/06/03 08:35:17;;;;;;;6.72;1.63;;;21.60;99.90;;;;;;5071781;28;20090;-88
2021/06/03 08:37:45;;;;;;;2.85;1.73;;;21.40;99.90;;;;;;5073525;28;20013;-88
2021/06/03 08:40:13;;;;;;;3.00;1.60;;;21.50;99.90;;;;;;5072185;28;20478;-88
2021/06/03 08:42:39;;;;;;;5.15;1.60;;;21.50;99.90;;;;;;5072079;28;20020;-88
2021/06/03 08:45:06;;;;;;;4.40;1.38;;;21.60;99.90;;;;;;5073811;28;20021;-87
2021/06/03 08:47:33;;;;;;;4.70;1.70;;;21.90;99.90;;;;;;5072235;28;20048;-87
2021/06/03 08:50:01;;;;;;;2.78;1.70;;;22.10;99.90;;;;;;5073426;28;20474;-88
2021/06/03 08:52:27;;;;;;;5.07;1.63;;;22.10;99.90;;;;;;5072178;28;20029;-88
2021/06/03 08:54:54;;;;;;;4.93;1.73;;;22.10;99.90;;;;;;5072155;28;20039;-88
2021/06/03 08:57:21;;;;;;;4.03;1.83;;;22.30;99.90;;;;;;5073723;28;20070;-87
2021/06/03 08:59:47;;;;;;;2.22;1.50;;;22.20;99.90;;;;;;5071935;28;20074;-87
2021/06/03 09:02:14;;;;;;;5.25;1.90;;;22.30;99.90;;;;;;5072146;28;20056;-87
2021/06/03 09:04:40;;;;;;;5.03;1.52;;;22.40;99.90;;;;;;5072878;28;20539;-87
2021/06/03 09:07:30;;;;;;;3.50;1.40;;;22.70;99.90;;;;;;5072961;28;20442;-86
2021/06/03 09:09:56;;;;;;;3.13;1.50;;;22.90;99.90;;;;;;5071950;28;20373;-87
2021/06/03 09:12:21;;;;;;;3.38;1.73;;;22.80;99.90;;;;;;5073050;28;20078;-88
2021/06/03 09:15:14;;;;;;;4.15;1.70;;;22.90;99.90;;;;;;5072526;28;20020;-87
2021/06/03 09:17:47;;;;;;;5.25;1.75;;;23.00;99.90;;;;;;5077187;28;20025;-87
2021/06/03 09:20:13;;;;;;;4.38;1.70;;;23.20;99.90;;;;;;5075846;28;20460;-86
2021/06/03 09:22:42;;;;;;;4.22;1.60;;;23.60;99.90;;;;;;5075744;28;20111;-86
2021/06/03 09:25:31;;;;;;;7.05;1.90;;;23.80;99.90;;;;;;5075758;28;20037;-86
2021/06/03 09:28:20;;;;;;;6.20;1.63;;;24.10;99.90;;;;;;5076914;28;20021;-86
2021/06/03 09:31:10;;;;;;;5.68;1.83;;;23.60;99.90;;;;;;5077125;28;20036;-86
2021/06/03 09:33:54;;;;;;;4.60;1.80;;;23.00;99.90;;;;;;5075381;28;20512;-86
2021/06/03 09:36:27;;;;;;;3.50;1.80;;;22.80;99.90;;;;;;5077101;28;20025;-87
2021/06/03 09:39:07;;;;;;;4.30;2.00;;;22.60;99.90;;;;;;5075525;28;20021;-86
2021/06/03 09:41:36;;;;;;;3.42;1.75;;;23.10;99.90;;;;;;5076740;28;20028;-87
2021/06/03 09:44:13;;;;;;;6.97;1.90;;;23.40;99.90;;;;;;5075239;28;20054;-87
2021/06/03 09:46:45;;;;;;;2.63;1.90;;;23.70;99.90;;;;;;5076823;28;20047;-87
2021/06/03 09:49:21;;;;;;;6.85;1.70;;;24.20;99.90;;;;;;5075340;28;20032;-86
2021/06/03 09:51:52;;;;;;;2.90;1.52;;;24.40;99.90;;;;;;5076436;28;20386;-87
2021/06/03 09:54:20;;;;;;;2.90;1.50;;;24.90;99.90;;;;;;5076507;28;20522;-88
2021/06/03 09:56:50;;;;;;;3.08;1.90;;;24.90;99.90;;;;;;5076415;28;20021;-88
2021/06/03 09:59:22;;;;;;;4.18;1.65;;;24.90;99.20;;;;;;5076364;28;20020;-86
2021/06/03 10:01:56;;;;;;;4.82;1.67;;;25.00;99.90;;;;;;5076542;28;20055;-86
2021/06/03 10:04:35;;;;;;;3.38;1.88;;;25.10;99.20;;;;;;5074925;28;20029;-87
2021/06/03 10:07:06;;;;;;;2.42;1.50;;;25.20;98.40;;;;;;5076255;28;20021;-87
2021/06/03 10:09:36;;;;;;;4.47;1.30;;;25.30;96.80;;;;;;5074927;28;20027;-87
2021/06/03 10:12:02;;;;;;;5.50;1.50;;;25.50;97.00;;;;;;5074783;28;20096;-87
2021/06/03 10:14:28;;;;;;;5.50;1.77;;;25.60;97.50;;;;;;5074792;28;20017;-86
2021/06/03 10:16:54;;;;;;;3.80;1.48;;;26.00;97.40;;;;;;5074803;28;20090;-87
2021/06/03 10:19:28;;;;;;;5.90;1.65;;;26.30;97.30;;;;;;5075957;28;20049;-85
2021/06/03 10:22:21;;;;;;;3.03;1.42;;;26.50;96.50;;;;;;5076012;28;20029;-86
2021/06/03 10:25:18;;;;;;;2.65;1.30;;;25.80;97.50;;;;;;5074701;28;20568;-86
2021/06/03 10:28:09;;;;;;;3.90;1.40;;;24.90;99.20;;;;;;5074421;28;20456;-86
2021/06/03 10:30:38;;;;;;;5.43;1.48;;;24.30;99.90;;;;;;5076015;28;20025;-87
2021/06/03 10:33:11;;;;;;;4.90;1.88;;;23.80;99.90;;;;;;5074354;28;20489;-86
2021/06/03 10:35:39;;;;;;;4.50;1.50;;;23.60;99.90;;;;;;5076010;28;20025;-87
2021/06/03 10:38:07;;;;;;;2.72;1.40;;;23.60;99.90;;;;;;5074369;28;20073;-87
2021/06/03 10:40:36;;;;;;;4.18;1.70;;;23.50;99.90;;;;;;5074339;28;20132;-87
2021/06/03 10:43:03;;;;;;;7.20;1.55;;;23.60;99.90;;;;;;5075535;28;20021;-87
2021/06/03 10:45:30;;;;;;;3.22;1.60;;;23.70;99.90;;;;;;5074258;28;20118;-87
2021/06/03 10:47:56;;;;;;;4.70;1.73;;;24.00;99.90;;;;;;5074133;28;20028;-87
2021/06/03 10:50:31;;;;;;;2.78;1.70;;;24.10;99.90;;;;;;5075309;28;20037;-87
2021/06/03 10:53:05;;;;;;;5.15;1.80;;;24.20;99.90;;;;;;5075306;28;20024;-87
2021/06/03 10:55:38;;;;;;;;;;;24.40;99.90;;;;;;5074476;28;20028;-87
2021/06/03 10:58:06;;;;;;;4.25;1.65;;;24.70;99.90;;;;;;5075282;28;19911;-87
2021/06/03 11:00:53;;;;;;;3.08;1.58;;;24.70;99.90;;;;;;5075204;28;20024;-87
2021/06/03 11:03:22;;;;;;;3.45;1.60;;;24.90;99.90;;;;;;5075159;28;20031;-87
2021/06/03 11:05:59;;;;;;;4.68;1.60;;;24.60;99.90;;;;;;5075091;28;20025;-87
2021/06/03 11:08:28;;;;;;;4.05;1.60;;;24.40;99.90;;;;;;5074149;28;20385;-87
2021/06/03 11:11:15;;;;;;;7.22;1.98;;;24.20;99.90;;;;;;5074076;28;20024;-86
2021/06/03 11:13:46;;;;;;;3.30;1.65;;;23.80;99.90;;;;;;5074845;28;20055;-87
2021/06/03 11:16:16;;;;;;;3.05;1.45;;;23.70;99.90;;;;;;5074015;28;20422;-87
2021/06/03 11:18:45;;;;;;;3.03;1.98;;;23.70;99.90;;;;;;5073891;28;20063;-87
2021/06/03 11:21:32;;;;;;;5.07;2.10;;;23.60;99.90;;;;;;5073532;28;20028;-87
2021/06/03 11:24:05;;;;;;;4.65;2.33;;;23.40;99.90;;;;;;5074724;28;20032;-86
2021/06/03 11:26:43;;;;;;;3.95;2.20;;;23.30;99.90;;;;;;5074741;28;20032;-86
2021/06/03 11:29:17;;;;;;;8.85;1.98;;;23.00;99.90;;;;;;5073328;28;20025;-87
2021/06/03 11:32:12;;;;;;;4.75;1.60;;;23.00;99.90;;;;;;5073223;28;20020;-86
2021/06/03 11:34:41;;;;;;;4.22;2.00;;;23.00;99.90;;;;;;5074073;28;20124;-86
2021/06/03 11:37:12;;;;;;;4.35;2.03;;;22.90;99.90;;;;;;5073201;28;20029;-86
2021/06/03 11:39:40;;;;;;;3.22;2.10;;;22.70;99.90;;;;;;5072983;28;20391;-86
2021/06/03 11:42:26;;;;;;;2.40;1.88;;;22.60;99.90;;;;;;5073062;28;20035;-86
2021/06/03 11:45:15;;;;;;;11.13;2.45;;;22.10;99.90;;;;;;5056399;28;20045;-86
2021/06/03 11:47:44;;;;;;;7.60;2.17;;;21.70;99.90;;;;;;5074213;28;20033;-85
2021/06/03 11:50:13;;;;;;;4.75;1.67;;;21.60;99.90;;;;;;5072874;28;20042;-85
2021/06/03 11:52:39;;;;;;;2.88;1.73;;;21.60;99.90;;;;;;5072863;28;20115;-85
2021/06/03 11:55:08;;;;;;;3.20;1.55;;;21.70;99.90;;;;;;5072878;28;20407;-85
2021/06/03 11:57:36;;;;;;;4.85;1.75;;;21.70;99.90;;;;;;5072834;28;20050;-85
2021/06/03 12:00:07;;;;;;;4.90;2.10;;;21.70;99.90;;;;;;5073938;28;20024;-86
2021/06/03 12:02:38;;;;;;;8.05;2.20;;;21.80;99.90;;;;;;5073879;28;20429;-87
2021/06/03 12:05:12;;;;;;;3.30;2.00;;;21.80;99.90;;;;;;5073952;28;20028;-86
2021/06/03 12:07:42;;;;;;;3.10;1.98;;;21.70;99.90;;;;;;5072641;28;20027;-86
2021/06/03 12:10:09;;;;;;;4.20;2.08;;;21.70;99.90;;;;;;5072539;28;20054;-86
2021/06/03 12:12:35;;;;;;;4.95;2.30;;;22.00;99.90;;;;;;5072557;28;20458;-87
2021/06/03 12:15:02;;;;;;;5.07;1.90;;;22.00;99.90;;;;;;5074042;28;20017;-87
2021/06/03 12:17:28;;;;;;;5.45;2.47;;;22.10;99.90;;;;;;5072482;28;20024;-86
2021/06/03 12:19:53;;;;;;;2.92;1.60;;;22.30;99.90;;;;;;5073698;28;20024;-87
2021/06/03 12:22:21;;;;;;;3.72;1.52;;;22.60;99.90;;;;;;5072421;28;20073;-87
2021/06/03 12:24:50;;;;;;;3.40;1.70;;;23.30;99.90;;;;;;5072356;28;20116;-87
2021/06/03 12:27:28;;;;;;;5.25;1.85;;;23.60;99.90;;;;;;5072356;28;20028;-87
2021/06/03 12:29:55;;;;;;;9.82;1.70;;;25.20;99.90;;;;;;5072448;28;20033;-88
2021/06/03 12:32:22;;;;;;;3.40;1.80;;;25.30;99.90;;;;;;5073495;28;20539;-88
2021/06/03 12:34:48;;;;;;;2.58;1.60;;;26.10;99.90;;;;;;5072094;28;20048;-89
2021/06/03 12:37:28;;;;;;;3.85;1.70;;;26.80;99.90;;;;;;5072304;28;20016;-89
2021/06/03 12:39:54;;;;;;;3.60;1.42;;;27.30;99.90;;;;;;5072220;28;20020;-89
2021/06/03 12:42:23;;;;;;;6.47;1.33;;;27.70;99.90;;;;;;5072147;28;20536;-88
2021/06/03 12:44:57;;;;;;;3.85;1.45;;;28.20;99.90;;;;;;5073358;28;20424;-88
2021/06/03 12:47:23;;;;;;;;;;;;;;;;;;5072746;28;20436;-87
2021/06/03 12:49:49;;;;;;;2.60;1.13;;;28.70;98.60;;;;;;5071580;28;19968;-90
2021/06/03 12:52:17;;;;;;;3.63;1.40;;;28.50;99.90;;;;;;5071937;28;20029;-90
2021/06/03 12:54:45;;;;;;;2.70;1.10;;;28.90;99.50;;;;;;5072093;28;20174;-90
2021/06/03 12:57:17;;;;;;;4.43;1.40;;;29.60;97.70;;;;;;5073375;28;20459;-90